createdAt,value
2023-03-17T00:00:02.804Z,-1.43
2023-03-17T00:00:17.579Z,-1.43
2023-03-17T00:00:51.073Z,-1.44
2023-03-17T00:01:09.757Z,-1.43
2023-03-17T00:01:24.153Z,-1.43
2023-03-17T00:01:37.147Z,-1.43
2023-03-17T00:01:54.345Z,-1.44
2023-03-17T00:02:08.669Z,-1.43
2023-03-17T00:02:23.337Z,-1.44
2023-03-17T00:02:36.762Z,-1.46
2023-03-17T00:02:51.523Z,-1.45
2023-03-17T00:03:05.838Z,-1.45
2023-03-17T00:03:22.737Z,-1.45
2023-03-17T00:03:38.776Z,-1.46
2023-03-17T00:03:51.641Z,-1.46
2023-03-17T00:04:04.467Z,-1.46
2023-03-17T00:04:20.007Z,-1.46
2023-03-17T00:04:33.034Z,-1.45
2023-03-17T00:04:45.583Z,-1.46
2023-03-17T00:04:58.128Z,-1.46
2023-03-17T00:05:23.224Z,-1.47
2023-03-17T00:05:36.696Z,-1.50
2023-03-17T00:05:51.575Z,-1.50
2023-03-17T00:06:05.886Z,-1.52
2023-03-17T00:06:25.081Z,-1.52
2023-03-17T00:06:38.053Z,-1.52
2023-03-17T00:06:50.875Z,-1.53
2023-03-17T00:07:03.500Z,-1.54
2023-03-17T00:07:17.810Z,-1.55
2023-03-17T00:07:31.956Z,-1.56
2023-03-17T00:07:45.341Z,-1.58
2023-03-17T00:08:03.160Z,-1.60
2023-03-17T00:08:20.739Z,-1.61
2023-03-17T00:08:35.799Z,-1.62
2023-03-17T00:08:49.418Z,-1.65
2023-03-17T00:09:02.066Z,-1.65
2023-03-17T00:09:16.013Z,-1.65
2023-03-17T00:09:30.004Z,-1.66
2023-03-17T00:09:42.640Z,-1.67
2023-03-17T00:09:55.935Z,-1.67
2023-03-17T00:10:14.077Z,-1.69
2023-03-17T00:10:27.797Z,-1.68
2023-03-17T00:10:40.376Z,-1.69
2023-03-17T00:10:53.227Z,-1.69
2023-03-17T00:11:10.707Z,-1.69
2023-03-17T00:11:23.404Z,-1.69
2023-03-17T00:11:35.973Z,-1.69
2023-03-17T00:11:49.043Z,-1.69
2023-03-17T00:12:02.826Z,-1.69
2023-03-17T00:12:15.836Z,-1.69
2023-03-17T00:12:28.372Z,-1.69
2023-03-17T00:12:41.311Z,-1.69
2023-03-17T00:12:55.565Z,-1.69
2023-03-17T00:13:11.438Z,-1.68
2023-03-17T00:13:25.113Z,-1.68
2023-03-17T00:13:38.606Z,-1.67
2023-03-17T00:13:51.290Z,-1.67
2023-03-17T00:14:04.661Z,-1.70
2023-03-17T00:14:18.165Z,-1.69
2023-03-17T00:14:30.977Z,-1.69
2023-03-17T00:14:46.266Z,-1.70
2023-03-17T00:14:58.803Z,-1.69
2023-03-17T00:15:13.930Z,-1.69
2023-03-17T00:15:27.505Z,-1.71
2023-03-17T00:15:40.239Z,-1.72
2023-03-17T00:15:55.910Z,-1.69
2023-03-17T00:16:16.124Z,-1.71
2023-03-17T00:16:29.444Z,-1.71
2023-03-17T00:16:44.826Z,-1.70
2023-03-17T00:16:57.740Z,-1.70
2023-03-17T00:17:14.092Z,-1.70
2023-03-17T00:17:26.774Z,-1.70
2023-03-17T00:17:39.531Z,-1.69
2023-03-17T00:17:54.598Z,-1.69
2023-03-17T00:18:13.157Z,-1.69
2023-03-17T00:18:25.791Z,-1.67
2023-03-17T00:18:38.818Z,-1.67
2023-03-17T00:18:53.430Z,-1.67
2023-03-17T00:19:06.474Z,-1.66
2023-03-17T00:19:24.503Z,-1.66
2023-03-17T00:19:38.107Z,-1.64
2023-03-17T00:19:50.837Z,-1.63
2023-03-17T00:20:04.068Z,-1.63
2023-03-17T00:20:23.966Z,-1.62
2023-03-17T00:20:36.630Z,-1.62
2023-03-17T00:20:49.521Z,-1.63
2023-03-17T00:21:02.420Z,-1.62
2023-03-17T00:21:19.641Z,-1.61
2023-03-17T00:21:35.683Z,-1.61
2023-03-17T00:21:49.527Z,-1.62
2023-03-17T00:22:06.073Z,-1.62
2023-03-17T00:22:19.030Z,-1.62
2023-03-17T00:22:31.620Z,-1.62
2023-03-17T00:22:45.426Z,-1.62
2023-03-17T00:22:59.599Z,-1.63
2023-03-17T00:23:17.034Z,-1.63
2023-03-17T00:23:29.986Z,-1.63
2023-03-17T00:23:47.016Z,-1.64
2023-03-17T00:23:59.656Z,-1.63
2023-03-17T00:24:14.899Z,-1.63
2023-03-17T00:24:29.779Z,-1.64
2023-03-17T00:24:42.692Z,-1.64
2023-03-17T00:24:55.329Z,-1.63
2023-03-17T00:25:20.171Z,-1.63
2023-03-17T00:25:34.813Z,-1.62
2023-03-17T00:25:48.008Z,-1.62
2023-03-17T00:26:00.611Z,-1.62
2023-03-17T00:26:13.228Z,-1.62
2023-03-17T00:26:26.833Z,-1.62
2023-03-17T00:26:41.011Z,-1.62
2023-03-17T00:26:54.572Z,-1.63
2023-03-17T00:27:11.189Z,-1.63
2023-03-17T00:27:24.267Z,-1.64
2023-03-17T00:27:36.814Z,-1.64
2023-03-17T00:27:50.212Z,-1.64
2023-03-17T00:28:04.761Z,-1.65
2023-03-17T00:28:19.328Z,-1.65
2023-03-17T00:28:33.604Z,-1.66
2023-03-17T00:28:46.523Z,-1.67
2023-03-17T00:28:59.118Z,-1.69
2023-03-17T00:29:12.027Z,-1.70
2023-03-17T00:29:25.419Z,-1.70
2023-03-17T00:29:38.324Z,-1.72
2023-03-17T00:29:50.902Z,-1.72
2023-03-17T00:30:05.492Z,-1.74
2023-03-17T00:30:19.018Z,-1.75
2023-03-17T00:30:32.028Z,-1.76
2023-03-17T00:30:45.265Z,-1.77
2023-03-17T00:31:00.966Z,-1.77
2023-03-17T00:31:16.718Z,-1.78
2023-03-17T00:31:30.310Z,-1.78
2023-03-17T00:31:45.255Z,-1.79
2023-03-17T00:31:58.015Z,-1.79
2023-03-17T00:32:17.528Z,-1.80
2023-03-17T00:32:30.423Z,-1.81
2023-03-17T00:32:45.323Z,-1.81
2023-03-17T00:32:59.649Z,-1.82
2023-03-17T00:33:13.326Z,-1.82
2023-03-17T00:33:27.962Z,-1.82
2023-03-17T00:33:41.718Z,-1.82
2023-03-17T00:33:55.575Z,-1.81
2023-03-17T00:34:12.336Z,-1.82
2023-03-17T00:34:25.032Z,-1.81
2023-03-17T00:34:37.880Z,-1.80
2023-03-17T00:34:52.500Z,-1.80
2023-03-17T00:35:14.900Z,-1.79
2023-03-17T00:35:29.329Z,-1.79
2023-03-17T00:35:42.780Z,-1.81
2023-03-17T00:35:58.624Z,-1.80
2023-03-17T00:36:16.814Z,-1.79
2023-03-17T00:36:33.047Z,-1.80
2023-03-17T00:36:47.361Z,-1.79
2023-03-17T00:37:00.757Z,-1.80
2023-03-17T00:37:13.652Z,-1.79
2023-03-17T00:37:27.215Z,-1.80
2023-03-17T00:37:39.819Z,-1.79
2023-03-17T00:37:53.985Z,-1.79
2023-03-17T00:38:07.482Z,-1.79
2023-03-17T00:38:21.947Z,-1.79
2023-03-17T00:38:35.043Z,-1.79
2023-03-17T00:38:47.671Z,-1.78
2023-03-17T00:39:01.497Z,-1.78
2023-03-17T00:39:27.125Z,-1.77
2023-03-17T00:39:41.159Z,-1.77
2023-03-17T00:39:53.716Z,-1.77
2023-03-17T00:40:10.364Z,-1.75
2023-03-17T00:40:26.172Z,-1.76
2023-03-17T00:40:38.757Z,-1.77
2023-03-17T00:40:51.942Z,-1.75
2023-03-17T00:41:04.849Z,-1.75
2023-03-17T00:41:18.332Z,-1.75
2023-03-17T00:41:31.052Z,-1.74
2023-03-17T00:41:43.796Z,-1.74
2023-03-17T00:41:57.462Z,-1.74
2023-03-17T00:42:11.124Z,-1.74
2023-03-17T00:42:23.758Z,-1.73
2023-03-17T00:42:36.353Z,-1.73
2023-03-17T00:42:50.069Z,-1.74
2023-03-17T00:43:03.268Z,-1.73
2023-03-17T00:43:16.865Z,-1.73
2023-03-17T00:43:30.705Z,-1.73
2023-03-17T00:43:43.454Z,-1.74
2023-03-17T00:43:56.105Z,-1.74
2023-03-17T00:44:08.673Z,-1.74
2023-03-17T00:44:21.272Z,-1.74
2023-03-17T00:44:34.636Z,-1.75
2023-03-17T00:44:47.559Z,-1.75
2023-03-17T00:45:00.151Z,-1.75
2023-03-17T00:45:14.457Z,-1.75
2023-03-17T00:45:27.293Z,-1.75
2023-03-17T00:45:40.807Z,-1.77
2023-03-17T00:45:54.996Z,-1.76
2023-03-17T00:46:13.108Z,-1.75
2023-03-17T00:46:28.519Z,-1.75
2023-03-17T00:46:41.654Z,-1.75
2023-03-17T00:46:56.495Z,-1.75
2023-03-17T00:47:10.007Z,-1.75
2023-03-17T00:47:23.121Z,-1.75
2023-03-17T00:47:35.754Z,-1.75
2023-03-17T00:47:50.050Z,-1.74
2023-03-17T00:48:03.372Z,-1.74
2023-03-17T00:48:18.680Z,-1.74
2023-03-17T00:48:32.282Z,-1.75
2023-03-17T00:48:45.621Z,-1.76
2023-03-17T00:48:58.449Z,-1.75
2023-03-17T00:49:28.893Z,-1.76
2023-03-17T00:49:41.469Z,-1.77
2023-03-17T00:49:54.377Z,-1.77
2023-03-17T00:50:12.162Z,-1.79
2023-03-17T00:50:27.970Z,-1.79
2023-03-17T00:50:41.173Z,-1.80
2023-03-17T00:50:54.520Z,-1.80
2023-03-17T00:51:07.339Z,-1.81
2023-03-17T00:51:21.149Z,-1.81
2023-03-17T00:51:33.878Z,-1.82
2023-03-17T00:51:48.268Z,-1.84
2023-03-17T00:52:01.577Z,-1.84
2023-03-17T00:52:14.139Z,-1.85
2023-03-17T00:52:27.501Z,-1.85
2023-03-17T00:52:40.749Z,-1.85
2023-03-17T00:52:56.572Z,-1.85
2023-03-17T00:53:12.518Z,-1.86
2023-03-17T00:53:26.390Z,-1.88
2023-03-17T00:53:39.828Z,-1.89
2023-03-17T00:53:52.789Z,-1.90
2023-03-17T00:54:05.569Z,-1.88
2023-03-17T00:54:19.591Z,-1.88
2023-03-17T00:54:32.153Z,-1.89
2023-03-17T00:54:46.882Z,-1.90
2023-03-17T00:54:59.527Z,-1.92
2023-03-17T00:55:14.451Z,-1.92
2023-03-17T00:55:27.225Z,-1.92
2023-03-17T00:55:40.361Z,-1.93
2023-03-17T00:55:52.975Z,-1.93
2023-03-17T00:56:13.391Z,-1.94
2023-03-17T00:56:26.332Z,-1.94
2023-03-17T00:56:41.777Z,-1.95
2023-03-17T00:56:54.572Z,-1.94
2023-03-17T00:57:10.038Z,-1.94
2023-03-17T00:57:22.741Z,-1.94
2023-03-17T00:57:35.903Z,-1.95
2023-03-17T00:57:50.666Z,-1.96
2023-03-17T00:58:10.326Z,-1.96
2023-03-17T00:58:27.019Z,-1.97
2023-03-17T00:58:40.154Z,-1.98
2023-03-17T00:58:52.820Z,-1.99
2023-03-17T00:59:13.352Z,-1.99
2023-03-17T00:59:30.797Z,-1.99
2023-03-17T00:59:43.440Z,-1.99
2023-03-17T00:59:56.281Z,-1.98
2023-03-17T01:00:19.859Z,-1.98
2023-03-17T01:00:32.802Z,-1.99
2023-03-17T01:00:45.760Z,-1.98
2023-03-17T01:01:00.899Z,-1.99
2023-03-17T01:01:13.613Z,-1.99
2023-03-17T01:01:26.842Z,-1.98
2023-03-17T01:01:39.514Z,-1.98
2023-03-17T01:01:53.128Z,-1.98
2023-03-17T01:02:05.978Z,-1.96
2023-03-17T01:02:18.679Z,-1.98
2023-03-17T01:02:32.306Z,-1.96
2023-03-17T01:02:45.842Z,-1.96
2023-03-17T01:02:58.472Z,-1.97
2023-03-17T01:03:12.814Z,-1.96
2023-03-17T01:03:26.900Z,-1.96
2023-03-17T01:03:39.743Z,-1.94
2023-03-17T01:03:52.841Z,-1.95
2023-03-17T01:04:06.674Z,-1.95
2023-03-17T01:04:20.042Z,-1.94
2023-03-17T01:04:33.967Z,-1.95
2023-03-17T01:04:52.866Z,-1.96
2023-03-17T01:05:12.382Z,-1.95
2023-03-17T01:05:27.178Z,-1.94
2023-03-17T01:05:40.923Z,-1.94
2023-03-17T01:05:56.964Z,-1.95
2023-03-17T01:06:12.849Z,-1.97
2023-03-17T01:06:26.045Z,-1.97
2023-03-17T01:06:39.002Z,-1.96
2023-03-17T01:06:53.005Z,-1.97
2023-03-17T01:07:05.889Z,-1.96
2023-03-17T01:07:18.540Z,-1.96
2023-03-17T01:07:32.107Z,-1.95
2023-03-17T01:07:48.835Z,-1.95
2023-03-17T01:08:01.683Z,-1.96
2023-03-17T01:08:14.423Z,-1.96
2023-03-17T01:08:30.233Z,-1.96
2023-03-17T01:08:44.751Z,-1.96
2023-03-17T01:08:57.532Z,-1.96
2023-03-17T01:09:14.840Z,-1.95
2023-03-17T01:09:28.161Z,-1.96
2023-03-17T01:09:41.671Z,-1.96
2023-03-17T01:09:55.717Z,-1.96
2023-03-17T01:10:13.188Z,-1.95
2023-03-17T01:10:28.189Z,-1.94
2023-03-17T01:10:42.712Z,-1.95
2023-03-17T01:10:55.330Z,-1.96
2023-03-17T01:11:16.130Z,-1.95
2023-03-17T01:11:28.770Z,-1.94
2023-03-17T01:11:42.698Z,-1.95
2023-03-17T01:11:55.893Z,-1.95
2023-03-17T01:12:13.636Z,-1.93
2023-03-17T01:12:26.381Z,-1.94
2023-03-17T01:12:38.999Z,-1.94
2023-03-17T01:12:52.674Z,-1.94
2023-03-17T01:13:06.359Z,-1.93
2023-03-17T01:13:18.954Z,-1.92
2023-03-17T01:13:31.526Z,-1.92
2023-03-17T01:13:44.794Z,-1.91
2023-03-17T01:13:59.076Z,-1.91
2023-03-17T01:14:12.887Z,-1.90
2023-03-17T01:14:25.843Z,-1.91
2023-03-17T01:14:38.855Z,-1.91
2023-03-17T01:14:51.701Z,-1.93
2023-03-17T01:15:04.679Z,-1.92
2023-03-17T01:15:17.809Z,-1.92
2023-03-17T01:15:31.688Z,-1.94
2023-03-17T01:15:47.378Z,-1.94
2023-03-17T01:16:01.111Z,-1.94
2023-03-17T01:16:15.523Z,-1.95
2023-03-17T01:16:29.026Z,-1.96
2023-03-17T01:16:41.977Z,-1.95
2023-03-17T01:16:55.249Z,-1.99
2023-03-17T01:17:14.208Z,-1.98
2023-03-17T01:17:27.801Z,-1.99
2023-03-17T01:17:40.746Z,-2.00
2023-03-17T01:17:53.334Z,-2.00
2023-03-17T01:18:05.969Z,-2.00
2023-03-17T01:18:21.571Z,-1.99
2023-03-17T01:18:34.378Z,-2.01
2023-03-17T01:18:47.058Z,-2.00
2023-03-17T01:19:01.170Z,-2.01
2023-03-17T01:19:14.606Z,-2.01
2023-03-17T01:19:27.502Z,-2.01
2023-03-17T01:19:40.061Z,-2.01
2023-03-17T01:19:52.794Z,-2.01
2023-03-17T01:20:06.864Z,-2.01
2023-03-17T01:20:22.891Z,-2.01
2023-03-17T01:20:35.488Z,-2.01
2023-03-17T01:20:48.593Z,-2.01
2023-03-17T01:21:01.330Z,-2.02
2023-03-17T01:21:14.070Z,-2.01
2023-03-17T01:21:26.772Z,-2.01
2023-03-17T01:21:40.706Z,-2.00
2023-03-17T01:21:54.286Z,-1.98
2023-03-17T01:22:07.010Z,-2.00
2023-03-17T01:22:19.568Z,-1.98
2023-03-17T01:22:32.420Z,-1.98
2023-03-17T01:22:45.277Z,-1.96
2023-03-17T01:22:57.869Z,-1.96
2023-03-17T01:23:10.680Z,-1.96
2023-03-17T01:23:23.610Z,-1.96
2023-03-17T01:23:37.987Z,-1.94
2023-03-17T01:23:50.565Z,-1.95
2023-03-17T01:24:03.241Z,-1.94
2023-03-17T01:24:15.822Z,-1.94
2023-03-17T01:24:28.605Z,-1.93
2023-03-17T01:24:41.368Z,-1.94
2023-03-17T01:24:55.309Z,-1.94
2023-03-17T01:25:10.187Z,-1.94
2023-03-17T01:25:23.395Z,-1.93
2023-03-17T01:25:36.473Z,-1.93
2023-03-17T01:25:50.155Z,-1.94
2023-03-17T01:26:02.937Z,-1.93
2023-03-17T01:26:15.579Z,-1.93
2023-03-17T01:26:28.605Z,-1.93
2023-03-17T01:26:42.306Z,-1.94
2023-03-17T01:26:54.869Z,-1.94
2023-03-17T01:27:07.964Z,-1.92
2023-03-17T01:27:20.588Z,-1.94
2023-03-17T01:27:35.412Z,-1.94
2023-03-17T01:27:49.175Z,-1.94
2023-03-17T01:28:02.212Z,-1.94
2023-03-17T01:28:18.064Z,-1.94
2023-03-17T01:28:30.640Z,-1.94
2023-03-17T01:28:43.319Z,-1.94
2023-03-17T01:28:56.064Z,-1.94
2023-03-17T01:29:08.767Z,-1.95
2023-03-17T01:29:21.658Z,-1.95
2023-03-17T01:29:34.810Z,-1.94
2023-03-17T01:29:48.381Z,-1.95
2023-03-17T01:30:01.201Z,-1.96
2023-03-17T01:30:23.989Z,-1.96
2023-03-17T01:30:38.629Z,-1.96
2023-03-17T01:30:51.245Z,-1.94
2023-03-17T01:31:05.012Z,-1.95
2023-03-17T01:31:19.624Z,-1.96
2023-03-17T01:31:32.444Z,-1.96
2023-03-17T01:31:46.229Z,-1.97
2023-03-17T01:31:59.183Z,-1.97
2023-03-17T01:32:11.864Z,-1.98
2023-03-17T01:32:24.414Z,-1.99
2023-03-17T01:32:37.207Z,-1.98
2023-03-17T01:32:50.344Z,-1.99
2023-03-17T01:33:04.570Z,-1.99
2023-03-17T01:33:17.194Z,-1.99
2023-03-17T01:33:30.009Z,-2.00
2023-03-17T01:33:42.642Z,-2.01
2023-03-17T01:33:55.227Z,-2.01
2023-03-17T01:34:07.838Z,-2.02
2023-03-17T01:34:22.037Z,-2.02
2023-03-17T01:34:35.128Z,-2.03
2023-03-17T01:34:48.168Z,-2.04
2023-03-17T01:35:00.770Z,-2.04
2023-03-17T01:35:13.382Z,-2.04
2023-03-17T01:35:29.325Z,-2.05
2023-03-17T01:35:43.825Z,-2.07
2023-03-17T01:35:57.606Z,-2.07
2023-03-17T01:36:11.196Z,-2.08
2023-03-17T01:36:23.873Z,-2.09
2023-03-17T01:36:37.577Z,-2.08
2023-03-17T01:36:50.477Z,-2.09
2023-03-17T01:37:03.205Z,-2.10
2023-03-17T01:37:15.782Z,-2.10
2023-03-17T01:37:28.712Z,-2.10
2023-03-17T01:37:42.626Z,-2.10
2023-03-17T01:37:57.172Z,-2.11
2023-03-17T01:38:10.648Z,-2.11
2023-03-17T01:38:23.420Z,-2.11
2023-03-17T01:38:36.422Z,-2.11
2023-03-17T01:38:50.816Z,-2.11
2023-03-17T01:39:05.433Z,-2.12
2023-03-17T01:39:18.334Z,-2.11
2023-03-17T01:39:30.927Z,-2.11
2023-03-17T01:39:43.504Z,-2.12
2023-03-17T01:39:57.449Z,-2.12
2023-03-17T01:40:15.372Z,-2.12
2023-03-17T01:40:30.712Z,-2.12
2023-03-17T01:40:46.940Z,-2.11
2023-03-17T01:41:01.409Z,-2.12
2023-03-17T01:41:14.329Z,-2.12
2023-03-17T01:41:27.159Z,-2.13
2023-03-17T01:41:40.319Z,-2.13
2023-03-17T01:41:56.846Z,-2.13
2023-03-17T01:42:11.572Z,-2.12
2023-03-17T01:42:24.434Z,-2.14
2023-03-17T01:42:38.086Z,-2.14
2023-03-17T01:42:54.750Z,-2.13
2023-03-17T01:43:18.486Z,-2.14
2023-03-17T01:43:32.561Z,-2.15
2023-03-17T01:43:45.128Z,-2.14
2023-03-17T01:43:57.700Z,-2.15
2023-03-17T01:44:16.978Z,-2.15
2023-03-17T01:44:29.668Z,-2.15
2023-03-17T01:44:58.136Z,-2.14
2023-03-17T01:45:44.965Z,-2.14
2023-03-17T01:46:23.155Z,-2.14
2023-03-17T01:46:36.671Z,-2.14
2023-03-17T01:46:50.307Z,-2.14
2023-03-17T01:47:02.918Z,-2.15
2023-03-17T01:47:16.635Z,-2.14
2023-03-17T01:47:30.667Z,-2.14
2023-03-17T01:47:43.281Z,-2.14
2023-03-17T01:47:56.174Z,-2.15
2023-03-17T01:48:09.184Z,-2.13
2023-03-17T01:48:23.524Z,-2.14
2023-03-17T01:48:41.733Z,-2.13
2023-03-17T01:49:04.471Z,-2.14
2023-03-17T01:49:25.658Z,-2.12
2023-03-17T01:49:39.862Z,-2.13
2023-03-17T01:49:53.121Z,-2.14
2023-03-17T01:50:09.053Z,-2.13
2023-03-17T01:50:22.150Z,-2.13
2023-03-17T01:50:34.897Z,-2.12
2023-03-17T01:50:48.578Z,-2.13
2023-03-17T01:51:02.030Z,-2.13
2023-03-17T01:51:18.937Z,-2.13
2023-03-17T01:51:37.779Z,-2.13
2023-03-17T01:51:57.546Z,-2.13
2023-03-17T01:52:14.319Z,-2.13
2023-03-17T01:52:28.836Z,-2.13
2023-03-17T01:52:41.797Z,-2.13
2023-03-17T01:52:54.405Z,-2.13
2023-03-17T01:53:07.558Z,-2.14
2023-03-17T01:53:23.161Z,-2.13
2023-03-17T01:53:36.525Z,-2.13
2023-03-17T01:53:51.186Z,-2.14
2023-03-17T01:54:06.836Z,-2.14
2023-03-17T01:54:27.096Z,-2.15
2023-03-17T01:54:45.962Z,-2.14
2023-03-17T01:55:03.765Z,-2.13
2023-03-17T01:55:18.046Z,-2.13
2023-03-17T01:55:31.572Z,-2.12
2023-03-17T01:55:45.592Z,-2.13
2023-03-17T01:55:58.248Z,-2.12
2023-03-17T01:56:11.903Z,-2.13
2023-03-17T01:56:25.872Z,-2.12
2023-03-17T01:56:41.747Z,-2.12
2023-03-17T01:56:58.797Z,-2.12
2023-03-17T01:57:16.634Z,-2.12
2023-03-17T01:57:33.942Z,-2.11
2023-03-17T01:57:50.829Z,-2.12
2023-03-17T01:58:03.719Z,-2.13
2023-03-17T01:58:18.358Z,-2.11
2023-03-17T01:58:32.471Z,-2.12
2023-03-17T01:58:46.981Z,-2.12
2023-03-17T01:59:04.040Z,-2.12
2023-03-17T01:59:20.334Z,-2.12
2023-03-17T01:59:36.869Z,-2.12
2023-03-17T01:59:52.264Z,-2.11
2023-03-17T02:00:09.242Z,-2.11
2023-03-17T02:00:26.576Z,-2.10
2023-03-17T02:00:39.766Z,-2.10
2023-03-17T02:00:52.620Z,-2.10
2023-03-17T02:01:07.774Z,-2.10
2023-03-17T02:01:24.183Z,-2.11
2023-03-17T02:01:42.174Z,-2.11
2023-03-17T02:02:01.443Z,-2.10
2023-03-17T02:02:21.172Z,-2.12
2023-03-17T02:02:36.698Z,-2.12
2023-03-17T02:02:51.689Z,-2.13
2023-03-17T02:03:06.079Z,-2.13
2023-03-17T02:03:19.079Z,-2.15
2023-03-17T02:03:31.919Z,-2.14
2023-03-17T02:03:45.289Z,-2.14
2023-03-17T02:04:00.203Z,-2.15
2023-03-17T02:04:13.496Z,-2.16
2023-03-17T02:04:26.876Z,-2.15
2023-03-17T02:04:40.402Z,-2.15
2023-03-17T02:04:53.266Z,-2.15
2023-03-17T02:05:09.642Z,-2.16
2023-03-17T02:05:26.021Z,-2.16
2023-03-17T02:05:39.798Z,-2.15
2023-03-17T02:05:53.347Z,-2.16
2023-03-17T02:06:07.328Z,-2.15
2023-03-17T02:06:19.978Z,-2.17
2023-03-17T02:06:33.340Z,-2.15
2023-03-17T02:06:57.377Z,-2.17
2023-03-17T02:07:12.531Z,-2.16
2023-03-17T02:07:26.880Z,-2.17
2023-03-17T02:07:40.292Z,-2.16
2023-03-17T02:07:53.550Z,-2.16
2023-03-17T02:08:11.322Z,-2.14
2023-03-17T02:08:23.935Z,-2.15
2023-03-17T02:08:36.523Z,-2.14
2023-03-17T02:08:49.114Z,-2.14
2023-03-17T02:09:02.983Z,-2.14
2023-03-17T02:09:15.819Z,-2.13
2023-03-17T02:09:28.842Z,-2.13
2023-03-17T02:09:41.434Z,-2.13
2023-03-17T02:09:56.224Z,-2.12
2023-03-17T02:10:12.965Z,-2.11
2023-03-17T02:10:27.495Z,-2.11
2023-03-17T02:10:42.287Z,-2.10
2023-03-17T02:10:57.322Z,-2.10
2023-03-17T02:11:10.699Z,-2.09
2023-03-17T02:11:23.968Z,-2.08
2023-03-17T02:11:36.719Z,-2.07
2023-03-17T02:11:50.688Z,-2.07
2023-03-17T02:12:05.328Z,-2.06
2023-03-17T02:12:19.192Z,-2.07
2023-03-17T02:12:34.725Z,-2.06
2023-03-17T02:12:51.937Z,-2.06
2023-03-17T02:13:05.803Z,-2.06
2023-03-17T02:13:18.826Z,-2.06
2023-03-17T02:13:32.983Z,-2.05
2023-03-17T02:13:45.629Z,-2.05
2023-03-17T02:13:59.493Z,-2.03
2023-03-17T02:14:12.435Z,-2.04
2023-03-17T02:14:25.616Z,-2.05
2023-03-17T02:14:38.258Z,-2.04
2023-03-17T02:14:51.784Z,-2.05
2023-03-17T02:15:06.086Z,-2.03
2023-03-17T02:15:18.852Z,-2.05
2023-03-17T02:15:42.985Z,-2.05
2023-03-17T02:15:57.024Z,-2.06
2023-03-17T02:16:14.827Z,-2.06
2023-03-17T02:16:30.802Z,-2.07
2023-03-17T02:16:45.808Z,-2.07
2023-03-17T02:16:58.556Z,-2.08
2023-03-17T02:17:11.212Z,-2.08
2023-03-17T02:17:27.416Z,-2.09
2023-03-17T02:17:40.211Z,-2.11
2023-03-17T02:17:53.068Z,-2.11
2023-03-17T02:18:06.942Z,-2.11
2023-03-17T02:18:22.826Z,-2.11
2023-03-17T02:18:35.379Z,-2.12
2023-03-17T02:18:47.980Z,-2.11
2023-03-17T02:19:00.672Z,-2.13
2023-03-17T02:19:13.655Z,-2.13
2023-03-17T02:19:28.607Z,-2.12
2023-03-17T02:19:42.503Z,-2.12
2023-03-17T02:19:55.577Z,-2.13
2023-03-17T02:20:47.154Z,-2.14
2023-03-17T02:21:32.649Z,-2.13
2023-03-17T02:21:47.708Z,-2.13
2023-03-17T02:22:01.370Z,-2.14
2023-03-17T02:22:14.325Z,-2.14
2023-03-17T02:22:28.103Z,-2.14
2023-03-17T02:22:40.687Z,-2.17
2023-03-17T02:22:56.055Z,-2.18
2023-03-17T02:23:08.651Z,-2.18
2023-03-17T02:23:23.438Z,-2.17
2023-03-17T02:23:36.687Z,-2.18
2023-03-17T02:23:49.857Z,-2.17
2023-03-17T02:24:07.887Z,-2.17
2023-03-17T02:24:27.541Z,-2.16
2023-03-17T02:24:43.702Z,-2.16
2023-03-17T02:24:59.537Z,-2.18
2023-03-17T02:25:12.520Z,-2.16
2023-03-17T02:25:27.077Z,-2.16
2023-03-17T02:25:40.776Z,-2.14
2023-03-17T02:25:54.254Z,-2.14
2023-03-17T02:26:08.451Z,-2.13
2023-03-17T02:26:26.053Z,-2.13
2023-03-17T02:26:38.828Z,-2.13
2023-03-17T02:26:54.105Z,-2.12
2023-03-17T02:27:13.043Z,-2.11
2023-03-17T02:27:33.360Z,-2.11
2023-03-17T02:27:49.444Z,-2.10
2023-03-17T02:28:08.435Z,-2.10
2023-03-17T02:28:26.017Z,-2.10
2023-03-17T02:28:39.620Z,-2.10
2023-03-17T02:28:52.499Z,-2.09
2023-03-17T02:29:06.611Z,-2.08
2023-03-17T02:29:21.192Z,-2.07
2023-03-17T02:29:37.801Z,-2.07
2023-03-17T02:29:50.895Z,-2.07
2023-03-17T02:30:04.690Z,-2.07
2023-03-17T02:30:20.714Z,-2.08
2023-03-17T02:30:35.035Z,-2.07
2023-03-17T02:30:47.658Z,-2.06
2023-03-17T02:31:00.318Z,-2.07
2023-03-17T02:31:14.576Z,-2.07
2023-03-17T02:31:28.226Z,-2.07
2023-03-17T02:31:41.790Z,-2.07
2023-03-17T02:31:54.777Z,-2.08
2023-03-17T02:32:08.011Z,-2.09
2023-03-17T02:32:22.020Z,-2.09
2023-03-17T02:32:35.524Z,-2.08
2023-03-17T02:32:48.254Z,-2.08
2023-03-17T02:33:01.200Z,-2.07
2023-03-17T02:33:13.815Z,-2.08
2023-03-17T02:33:27.684Z,-2.06
2023-03-17T02:33:40.408Z,-2.06
2023-03-17T02:33:53.161Z,-2.05
2023-03-17T02:34:06.135Z,-2.05
2023-03-17T02:34:19.986Z,-2.03
2023-03-17T02:34:32.944Z,-2.04
2023-03-17T02:34:47.048Z,-2.03
2023-03-17T02:34:59.637Z,-2.03
2023-03-17T02:35:13.013Z,-2.02
2023-03-17T02:35:25.620Z,-2.03
2023-03-17T02:35:38.252Z,-2.02
2023-03-17T02:35:51.228Z,-2.02
2023-03-17T02:36:05.518Z,-2.01
2023-03-17T02:36:18.318Z,-2.00
2023-03-17T02:36:32.331Z,-2.00
2023-03-17T02:36:46.275Z,-2.02
2023-03-17T02:36:59.315Z,-2.01
2023-03-17T02:37:12.023Z,-2.01
2023-03-17T02:37:26.022Z,-2.00
2023-03-17T02:37:38.672Z,-2.01
2023-03-17T02:37:51.252Z,-1.99
2023-03-17T02:38:04.192Z,-1.99
2023-03-17T02:38:17.447Z,-1.98
2023-03-17T02:38:30.081Z,-1.97
2023-03-17T02:38:42.687Z,-1.95
2023-03-17T02:38:55.924Z,-1.95
2023-03-17T02:39:08.910Z,-1.94
2023-03-17T02:39:22.509Z,-1.94
2023-03-17T02:39:35.201Z,-1.94
2023-03-17T02:39:47.866Z,-1.94
2023-03-17T02:40:01.722Z,-1.94
2023-03-17T02:40:15.274Z,-1.93
2023-03-17T02:40:28.942Z,-1.94
2023-03-17T02:40:41.608Z,-1.93
2023-03-17T02:40:54.237Z,-1.92
2023-03-17T02:41:07.408Z,-1.91
2023-03-17T02:41:21.213Z,-1.91
2023-03-17T02:41:34.415Z,-1.91
2023-03-17T02:41:47.072Z,-1.90
2023-03-17T02:41:59.665Z,-1.88
2023-03-17T02:42:13.250Z,-1.88
2023-03-17T02:42:27.025Z,-1.87
2023-03-17T02:42:40.097Z,-1.86
2023-03-17T02:42:54.104Z,-1.85
2023-03-17T02:43:06.724Z,-1.85
2023-03-17T02:43:19.668Z,-1.84
2023-03-17T02:43:32.369Z,-1.84
2023-03-17T02:43:44.941Z,-1.83
2023-03-17T02:43:57.520Z,-1.82
2023-03-17T02:44:11.982Z,-1.82
2023-03-17T02:44:25.016Z,-1.82
2023-03-17T02:44:37.598Z,-1.81
2023-03-17T02:44:50.646Z,-1.80
2023-03-17T02:45:03.906Z,-1.80
2023-03-17T02:45:16.614Z,-1.79
2023-03-17T02:45:29.225Z,-1.81
2023-03-17T02:45:41.882Z,-1.81
2023-03-17T02:45:55.504Z,-1.79
2023-03-17T02:46:08.187Z,-1.82
2023-03-17T02:46:20.886Z,-1.80
2023-03-17T02:46:33.573Z,-1.80
2023-03-17T02:46:47.006Z,-1.80
2023-03-17T02:47:02.083Z,-1.79
2023-03-17T02:47:15.012Z,-1.80
2023-03-17T02:47:27.766Z,-1.80
2023-03-17T02:47:41.515Z,-1.80
2023-03-17T02:47:55.256Z,-1.79
2023-03-17T02:48:08.346Z,-1.79
2023-03-17T02:48:22.846Z,-1.78
2023-03-17T02:48:37.476Z,-1.78
2023-03-17T02:48:51.719Z,-1.78
2023-03-17T02:49:05.501Z,-1.75
2023-03-17T02:49:18.610Z,-1.77
2023-03-17T02:49:32.941Z,-1.74
2023-03-17T02:49:45.868Z,-1.73
2023-03-17T02:49:58.763Z,-1.74
2023-03-17T02:50:21.320Z,-1.72
2023-03-17T02:50:33.922Z,-1.70
2023-03-17T02:50:46.979Z,-1.69
2023-03-17T02:50:59.605Z,-1.68
2023-03-17T02:51:12.371Z,-1.68
2023-03-17T02:51:24.953Z,-1.66
2023-03-17T02:51:39.913Z,-1.65
2023-03-17T02:51:52.564Z,-1.64
2023-03-17T02:52:05.777Z,-1.64
2023-03-17T02:52:18.365Z,-1.63
2023-03-17T02:52:31.874Z,-1.62
2023-03-17T02:52:44.769Z,-1.60
2023-03-17T02:52:58.541Z,-1.61
2023-03-17T02:53:11.156Z,-1.60
2023-03-17T02:53:23.717Z,-1.58
2023-03-17T02:53:37.276Z,-1.57
2023-03-17T02:53:50.012Z,-1.56
2023-03-17T02:54:02.757Z,-1.56
2023-03-17T02:54:15.455Z,-1.55
2023-03-17T02:54:28.057Z,-1.55
2023-03-17T02:54:40.704Z,-1.54
2023-03-17T02:54:53.263Z,-1.52
2023-03-17T02:55:08.324Z,-1.52
2023-03-17T02:55:22.010Z,-1.52
2023-03-17T02:55:34.621Z,-1.51
2023-03-17T02:55:47.231Z,-1.49
2023-03-17T02:55:59.999Z,-1.50
2023-03-17T02:56:12.745Z,-1.48
2023-03-17T02:56:26.495Z,-1.48
2023-03-17T02:56:39.354Z,-1.47
2023-03-17T02:56:52.026Z,-1.47
2023-03-17T02:57:05.622Z,-1.46
2023-03-17T02:57:18.306Z,-1.44
2023-03-17T02:57:30.928Z,-1.45
2023-03-17T02:57:43.821Z,-1.45
2023-03-17T02:57:56.712Z,-1.43
2023-03-17T02:58:10.343Z,-1.43
2023-03-17T02:58:22.958Z,-1.43
2023-03-17T02:58:35.726Z,-1.42
2023-03-17T02:58:48.403Z,-1.42
2023-03-17T02:59:00.998Z,-1.42
2023-03-17T02:59:14.625Z,-1.41
2023-03-17T02:59:27.716Z,-1.41
2023-03-17T02:59:40.430Z,-1.40
2023-03-17T02:59:54.051Z,-1.39
2023-03-17T03:00:10.364Z,-1.39
2023-03-17T03:00:24.013Z,-1.37
2023-03-17T03:00:36.736Z,-1.36
2023-03-17T03:00:49.841Z,-1.37
2023-03-17T03:01:03.745Z,-1.35
2023-03-17T03:01:16.681Z,-1.34
2023-03-17T03:01:30.919Z,-1.33
2023-03-17T03:01:43.637Z,-1.33
2023-03-17T03:01:56.353Z,-1.31
2023-03-17T03:02:09.328Z,-1.32
2023-03-17T03:02:22.000Z,-1.31
2023-03-17T03:02:35.647Z,-1.29
2023-03-17T03:02:48.328Z,-1.30
2023-03-17T03:03:01.380Z,-1.28
2023-03-17T03:03:13.940Z,-1.28
2023-03-17T03:03:26.717Z,-1.28
2023-03-17T03:03:39.348Z,-1.27
2023-03-17T03:03:51.944Z,-1.27
2023-03-17T03:04:05.782Z,-1.26
2023-03-17T03:04:19.231Z,-1.27